Terminal Aerodrome Forecast
Issued by NWS Los Angeles, CA

Home | Current Version | Previous Version | Text Only | Print | Product List | Glossary On
Versions: 1 2 3 4 5 6 7 8 9 10 11 12 13 14 15 16 17 18 19 20 21 22 23 24
000
FTUS46 KLOX 012300
TAFSMX
TAF
KSMX 012322Z 0200/0224 31012KT P6SM SKC
     FM020300 VRB03KT 5SM BR OVC005
     FM020800 VRB03KT 1SM BR OVC004
     FM021500 VRB03KT 5SM BR OVC006
     FM021700 VRB03KT P6SM BKN010
     FM021900 30012KT P6SM SKC=

USA.gov is the U.S. government's official web portal to all federal, state and local government web resources and services.